Terminal Aerodrome Forecast
Issued by NWS Twin Cities, MN

Home | Current Version | Previous Version | Text Only | Print | Product List | Glossary On
Versions: 1 2 3 4 5 6 7 8 9 10 11 12 13 14 15 16
193
FTUS43 KMPX 180520
TAFEAU
TAF
KEAU 180520Z 1806/1906 29006KT P6SM BKN015
     FM180800 27004KT P6SM SCT015
     FM180900 27004KT 6SM BR SKC
      TEMPO 1809/1813 2SM BR
     FM181300 29007KT P6SM BKN150
     FM181900 29007KT P6SM SCT050 BKN150
     FM190100 31003KT P6SM SCT050 BKN200=

USA.gov is the U.S. government's official web portal to all federal, state and local government web resources and services.